createdAt,value
2018-08-20T00:00:26.152Z,100589.30
2018-08-20T00:02:56.959Z,100594.66
2018-08-20T00:05:27.840Z,100598.29
2018-08-20T00:07:59.077Z,100598.77
2018-08-20T00:10:30.069Z,100601.45
2018-08-20T00:13:00.832Z,100602.56
2018-08-20T00:15:31.616Z,100597.44
2018-08-20T00:18:02.453Z,100601.59
2018-08-20T00:20:33.368Z,100597.83
2018-08-20T00:23:04.112Z,100603.82
2018-08-20T00:25:34.889Z,100603.10
2018-08-20T00:28:05.697Z,100598.94
2018-08-20T00:30:36.534Z,100602.34
2018-08-20T00:33:07.369Z,100600.56
2018-08-20T00:35:38.101Z,100607.27
2018-08-20T00:38:08.889Z,100605.84
2018-08-20T00:40:39.614Z,100601.83
2018-08-20T00:43:10.427Z,100608.05
2018-08-20T00:45:41.505Z,100601.36
2018-08-20T00:48:12.388Z,100601.26
2018-08-20T00:50:43.250Z,100608.69
2018-08-20T00:53:13.973Z,100602.98
2018-08-20T00:55:44.658Z,100598.64
2018-08-20T00:58:15.452Z,100598.89
2018-08-20T01:00:46.230Z,100596.06
2018-08-20T01:03:17.001Z,100592.42
2018-08-20T01:05:47.762Z,100597.06
2018-08-20T01:08:18.559Z,100595.11
2018-08-20T01:10:49.382Z,100594.63
2018-08-20T01:13:20.101Z,100596.45
2018-08-20T01:15:50.829Z,100593.57
2018-08-20T01:18:21.576Z,100593.20
2018-08-20T01:20:52.269Z,100592.00
2018-08-20T01:23:22.928Z,100590.77
2018-08-20T01:25:53.688Z,100591.14
2018-08-20T01:28:24.511Z,100588.31
2018-08-20T01:30:55.183Z,100579.08
2018-08-20T01:33:25.956Z,100579.94
2018-08-20T01:35:56.626Z,100584.06
2018-08-20T01:38:27.411Z,100577.88
2018-08-20T01:40:58.103Z,100576.78
2018-08-20T01:43:28.851Z,100578.50
2018-08-20T01:45:59.503Z,100574.96
2018-08-20T01:48:30.189Z,100577.55
2018-08-20T01:51:00.900Z,100587.27
2018-08-20T01:53:31.856Z,100582.91
2018-08-20T01:56:02.676Z,100585.35
2018-08-20T01:58:33.378Z,100578.65
2018-08-20T02:01:04.204Z,100576.59
2018-08-20T02:03:34.928Z,100575.83
2018-08-20T02:06:05.861Z,100580.57
2018-08-20T02:08:36.727Z,100577.55
2018-08-20T02:11:07.622Z,100570.95
2018-08-20T02:13:38.379Z,100567.42
2018-08-20T02:16:10.000Z,100569.27
2018-08-20T02:18:40.805Z,100562.44
2018-08-20T02:21:11.609Z,100562.68
2018-08-20T02:23:42.425Z,100558.31
2018-08-20T02:26:13.189Z,100563.30
2018-08-20T02:28:44.081Z,100564.53
2018-08-20T02:31:14.849Z,100564.39
2018-08-20T02:33:45.694Z,100564.88
2018-08-20T02:36:16.467Z,100567.22
2018-08-20T02:38:47.300Z,100562.48
2018-08-20T02:41:18.162Z,100560.90
2018-08-20T02:43:49.150Z,100561.63
2018-08-20T02:46:35.913Z,100568.09
2018-08-20T02:49:06.903Z,100560.30
2018-08-20T02:51:37.661Z,100560.91
2018-08-20T02:54:08.832Z,100555.33
2018-08-20T02:56:39.667Z,100557.77
2018-08-20T02:59:10.440Z,100557.91
2018-08-20T03:01:41.248Z,100557.67
2018-08-20T03:04:11.937Z,100563.66
2018-08-20T03:06:42.712Z,100565.75
2018-08-20T03:09:14.683Z,100554.42
2018-08-20T03:11:45.436Z,100559.44
2018-08-20T03:14:16.182Z,100558.71
2018-08-20T03:16:47.016Z,100557.38
2018-08-20T03:19:17.902Z,100555.69
2018-08-20T03:21:48.715Z,100564.55
2018-08-20T03:24:19.512Z,100561.39
2018-08-20T03:26:50.303Z,100565.17
2018-08-20T03:29:21.110Z,100570.18
2018-08-20T03:31:51.838Z,100566.88
2018-08-20T03:34:22.572Z,100573.92
2018-08-20T03:36:53.348Z,100572.14
2018-08-20T03:39:24.194Z,100578.72
2018-08-20T03:41:54.913Z,100574.44
2018-08-20T03:44:25.683Z,100573.95
2018-08-20T03:46:56.549Z,100583.22
2018-08-20T03:49:27.334Z,100584.32
2018-08-20T03:51:58.137Z,100580.78
2018-08-20T03:54:28.876Z,100585.41
2018-08-20T03:56:59.632Z,100582.39
2018-08-20T03:59:37.985Z,100587.13
2018-08-20T04:02:09.197Z,100581.90
2018-08-20T04:04:39.942Z,100585.30
2018-08-20T04:07:10.720Z,100581.19
2018-08-20T04:09:41.487Z,100570.34
2018-08-20T04:12:12.183Z,100578.38
2018-08-20T04:14:42.956Z,100580.94
2018-08-20T04:17:13.691Z,100583.38
2018-08-20T04:19:44.414Z,100580.31
2018-08-20T04:22:15.225Z,100590.92
2018-08-20T04:24:45.923Z,100600.03
2018-08-20T04:27:16.772Z,100588.98
2018-08-20T04:29:47.554Z,100583.50
2018-08-20T04:32:18.442Z,100581.44
2018-08-20T04:34:49.229Z,100584.47
2018-08-20T04:37:20.016Z,100586.52
2018-08-20T04:39:50.892Z,100577.77
2018-08-20T04:42:21.782Z,100579.59
2018-08-20T04:44:52.575Z,100584.94
2018-08-20T04:47:23.428Z,100580.21
2018-08-20T04:49:54.298Z,100574.84
2018-08-20T04:52:25.039Z,100579.85
2018-08-20T04:54:55.764Z,100583.86
2018-08-20T04:57:26.545Z,100583.75
2018-08-20T04:59:57.348Z,100586.89
2018-08-20T05:02:28.163Z,100587.75
2018-08-20T05:04:58.848Z,100588.72
2018-08-20T05:07:29.489Z,100586.17
2018-08-20T05:10:00.647Z,100597.48
2018-08-20T05:12:31.317Z,100600.74
2018-08-20T05:15:02.071Z,100606.61
2018-08-20T05:17:32.695Z,100600.03
2018-08-20T05:20:03.413Z,100600.63
2018-08-20T05:22:34.079Z,100611.33
2018-08-20T05:25:05.397Z,100606.95
2018-08-20T05:27:36.129Z,100611.56
2018-08-20T05:30:08.669Z,100610.97
2018-08-20T05:32:39.434Z,100612.19
2018-08-20T05:35:10.234Z,100611.08
2018-08-20T05:37:40.904Z,100610.25
2018-08-20T05:40:11.631Z,100607.30
2018-08-20T05:42:42.335Z,100616.91
2018-08-20T05:45:13.135Z,100613.89
2018-08-20T05:47:43.803Z,100622.14
2018-08-20T05:50:14.539Z,100618.34
2018-08-20T05:52:45.203Z,100625.02
2018-08-20T05:55:16.003Z,100617.61
2018-08-20T05:57:46.711Z,100619.20
2018-08-20T06:00:18.662Z,100624.52
2018-08-20T06:02:49.359Z,100625.40
2018-08-20T06:07:57.032Z,100634.01
2018-08-20T06:10:27.728Z,100632.06
2018-08-20T06:12:58.444Z,100636.39
2018-08-20T06:15:29.140Z,100641.01
2018-08-20T06:17:59.987Z,100641.48
2018-08-20T06:20:30.672Z,100645.90
2018-08-20T06:23:01.352Z,100641.20
2018-08-20T06:25:32.043Z,100647.02
2018-08-20T06:28:02.820Z,100652.23
2018-08-20T06:30:33.528Z,100649.72
2018-08-20T06:33:04.301Z,100654.34
2018-08-20T06:35:34.976Z,100660.20
2018-08-20T06:38:05.804Z,100667.23
2018-08-20T06:40:36.609Z,100660.33
2018-08-20T06:43:07.485Z,100666.23
2018-08-20T06:45:38.180Z,100667.30
2018-08-20T06:48:39.875Z,100664.70
2018-08-20T06:51:10.596Z,100666.34
2018-08-20T06:53:42.189Z,100672.64
2018-08-20T06:56:12.896Z,100676.05
2018-08-20T06:58:43.686Z,100680.03
2018-08-20T07:01:14.392Z,100682.45
2018-08-20T07:03:45.080Z,100685.20
2018-08-20T07:06:15.837Z,100688.05
2018-08-20T07:08:46.557Z,100687.13
2018-08-20T07:11:17.275Z,100689.32
2018-08-20T07:13:48.031Z,100688.13
2018-08-20T07:16:18.720Z,100695.92
2018-08-20T07:18:49.429Z,100697.99
2018-08-20T07:21:20.102Z,100691.57
2018-08-20T07:23:50.857Z,100694.34
2018-08-20T07:26:21.507Z,100697.01
2018-08-20T07:28:52.189Z,100704.41
2018-08-20T07:31:22.923Z,100704.41
2018-08-20T07:33:53.711Z,100709.36
2018-08-20T07:36:24.340Z,100708.03
2018-08-20T07:38:55.094Z,100712.56
2018-08-20T07:41:26.017Z,100715.31
2018-08-20T07:43:56.732Z,100713.64
2018-08-20T07:46:27.424Z,100719.38
2018-08-20T07:49:00.417Z,100719.45
2018-08-20T07:51:31.145Z,100719.91
2018-08-20T07:54:01.881Z,100725.84
2018-08-20T07:56:32.574Z,100723.77
2018-08-20T07:59:03.251Z,100726.20
2018-08-20T08:01:33.930Z,100725.39
2018-08-20T08:04:04.711Z,100729.05
2018-08-20T08:06:35.439Z,100727.32
2018-08-20T08:09:08.378Z,100719.84
2018-08-20T08:11:39.091Z,100721.91
2018-08-20T08:14:09.998Z,100730.91
2018-08-20T08:16:40.676Z,100728.59
2018-08-20T08:19:11.463Z,100732.73
2018-08-20T08:21:42.207Z,100735.75
2018-08-20T08:24:13.038Z,100735.20
2018-08-20T08:26:43.793Z,100736.41
2018-08-20T08:29:14.507Z,100742.73
2018-08-20T08:31:45.201Z,100740.66
2018-08-20T08:34:15.961Z,100738.73
2018-08-20T08:36:46.659Z,100735.80
2018-08-20T08:39:17.356Z,100743.09
2018-08-20T08:41:48.122Z,100744.52
2018-08-20T08:44:18.851Z,100740.77
2018-08-20T08:46:50.303Z,100747.79
2018-08-20T08:49:21.014Z,100749.39
2018-08-20T08:51:51.891Z,100753.83
2018-08-20T08:54:22.683Z,100752.37
2018-08-20T08:56:53.394Z,100754.70
2018-08-20T08:59:24.127Z,100751.80
2018-08-20T09:01:55.788Z,100754.36
2018-08-20T09:04:26.532Z,100755.83
2018-08-20T09:06:57.295Z,100754.88
2018-08-20T09:09:28.033Z,100757.33
2018-08-20T09:11:58.705Z,100764.49
2018-08-20T09:14:29.510Z,100767.42
2018-08-20T09:17:00.244Z,100766.43
2018-08-20T09:19:30.987Z,100769.75
2018-08-20T09:22:01.715Z,100762.20
2018-08-20T09:24:32.439Z,100765.48
2018-08-20T09:27:03.119Z,100761.98
2018-08-20T09:29:33.808Z,100762.93
2018-08-20T09:32:04.552Z,100769.02
2018-08-20T09:34:35.175Z,100761.41
2018-08-20T09:37:05.900Z,100767.04
2018-08-20T09:39:36.644Z,100769.71
2018-08-20T09:42:07.532Z,100766.63
2018-08-20T09:44:38.294Z,100766.15
2018-08-20T09:47:09.048Z,100769.01
2018-08-20T09:49:39.726Z,100771.46
2018-08-20T09:52:10.526Z,100767.67
2018-08-20T09:54:41.208Z,100773.78
2018-08-20T09:57:11.949Z,100773.41
2018-08-20T09:59:42.607Z,100780.97
2018-08-20T10:02:13.271Z,100769.03
2018-08-20T10:04:43.939Z,100775.50
2018-08-20T10:07:14.597Z,100775.39
2018-08-20T10:09:45.336Z,100772.10
2018-08-20T10:12:16.025Z,100771.38
2018-08-20T10:14:46.730Z,100773.08
2018-08-20T10:17:17.461Z,100769.41
2018-08-20T10:19:48.149Z,100765.39
2018-08-20T10:22:18.883Z,100767.24
2018-08-20T10:24:49.552Z,100762.55
2018-08-20T10:27:20.356Z,100760.33
2018-08-20T10:29:50.980Z,100764.48
2018-08-20T10:32:21.703Z,100757.74
2018-08-20T10:34:52.419Z,100769.36
2018-08-20T10:37:23.117Z,100767.44
2018-08-20T10:39:53.826Z,100760.33
2018-08-20T10:42:24.513Z,100760.77
2018-08-20T10:44:59.308Z,100760.53
2018-08-20T10:47:30.016Z,100765.95
2018-08-20T10:50:01.004Z,100769.29
2018-08-20T10:52:31.729Z,100763.36
2018-08-20T10:55:02.493Z,100762.75
2018-08-20T10:57:33.225Z,100761.80
2018-08-20T11:00:03.965Z,100761.56
2018-08-20T11:02:35.047Z,100759.37
2018-08-20T11:05:06.653Z,100768.53
2018-08-20T11:07:37.457Z,100771.64
2018-08-20T11:10:08.310Z,100771.75
2018-08-20T11:12:39.041Z,100770.17
2018-08-20T11:15:11.364Z,100768.36
2018-08-20T11:17:42.117Z,100765.08
2018-08-20T11:20:15.121Z,100765.25
2018-08-20T11:22:46.036Z,100771.12
2018-08-20T11:25:16.759Z,100766.73
2018-08-20T11:27:47.492Z,100754.41
2018-08-20T11:30:18.267Z,100766.04
2018-08-20T11:32:48.898Z,100757.82
2018-08-20T11:35:19.594Z,100757.00
2018-08-20T11:37:50.247Z,100756.25
2018-08-20T11:40:20.942Z,100757.39
2018-08-20T11:42:51.622Z,100755.63
2018-08-20T11:45:22.380Z,100753.16
2018-08-20T11:47:53.062Z,100764.67
2018-08-20T11:50:23.780Z,100754.74
2018-08-20T11:52:54.429Z,100753.98
2018-08-20T11:55:25.185Z,100756.05
2018-08-20T11:57:55.854Z,100759.52
2018-08-20T12:00:26.607Z,100757.97
2018-08-20T12:02:57.322Z,100757.38
2018-08-20T12:05:28.001Z,100751.58
2018-08-20T12:07:58.747Z,100744.86
2018-08-20T12:10:29.422Z,100753.12
2018-08-20T12:13:00.085Z,100755.21
2018-08-20T12:15:30.779Z,100748.41
2018-08-20T12:18:01.446Z,100750.32
2018-08-20T12:20:32.122Z,100752.19
2018-08-20T12:23:02.798Z,100755.11
2018-08-20T12:25:33.431Z,100763.95
2018-08-20T12:28:04.102Z,100772.41
2018-08-20T12:30:34.813Z,100775.00
2018-08-20T12:33:05.489Z,100785.03
2018-08-20T12:35:36.103Z,100788.96
2018-08-20T12:38:06.732Z,100782.81
2018-08-20T12:40:37.338Z,100788.53
2018-08-20T12:43:08.200Z,100781.73
2018-08-20T12:45:38.850Z,100775.53
2018-08-20T12:48:10.311Z,100776.91
2018-08-20T12:50:40.983Z,100775.34
2018-08-20T12:53:11.667Z,100778.30
2018-08-20T12:55:42.344Z,100779.67
2018-08-20T12:58:13.130Z,100783.45
2018-08-20T13:00:43.827Z,100781.53
2018-08-20T13:03:14.505Z,100769.33
2018-08-20T13:05:45.224Z,100775.45
2018-08-20T13:08:15.922Z,100772.39
2018-08-20T13:10:46.672Z,100763.11
2018-08-20T13:13:17.369Z,100767.33
2018-08-20T13:15:48.155Z,100764.75
2018-08-20T13:18:18.785Z,100765.92
2018-08-20T13:20:49.521Z,100761.59
2018-08-20T13:23:20.240Z,100766.71
2018-08-20T13:25:50.888Z,100763.70
2018-08-20T13:28:21.586Z,100758.74
2018-08-20T13:30:52.520Z,100755.80
2018-08-20T13:33:23.304Z,100757.00
2018-08-20T13:35:54.047Z,100761.83
2018-08-20T13:38:24.819Z,100754.98
2018-08-20T13:40:55.510Z,100750.02
2018-08-20T13:43:26.296Z,100752.78
2018-08-20T13:45:57.023Z,100749.69
2018-08-20T13:48:27.740Z,100754.20
2018-08-20T13:50:58.431Z,100750.38
2018-08-20T13:53:29.245Z,100755.83
2018-08-20T13:56:00.224Z,100757.88
2018-08-20T13:58:30.975Z,100755.34
2018-08-20T14:01:01.916Z,100760.23
2018-08-20T14:03:32.765Z,100758.12
2018-08-20T14:06:03.466Z,100755.14
2018-08-20T14:08:34.199Z,100754.98
2018-08-20T14:11:04.908Z,100755.84
2018-08-20T14:13:35.617Z,100748.98
2018-08-20T14:16:06.453Z,100750.55
2018-08-20T14:18:37.210Z,100748.84
2018-08-20T14:21:15.098Z,100745.59
2018-08-20T14:23:48.468Z,100753.80
2018-08-20T14:26:19.214Z,100750.39
2018-08-20T14:28:49.893Z,100757.62
2018-08-20T14:31:20.674Z,100750.53
2018-08-20T14:33:51.402Z,100748.00
2018-08-20T14:36:22.165Z,100750.27
2018-08-20T14:38:52.907Z,100746.65
2018-08-20T14:41:23.663Z,100749.41
2018-08-20T14:43:54.375Z,100744.36
2018-08-20T14:46:25.079Z,100742.67
2018-08-20T14:48:55.800Z,100745.00
2018-08-20T14:51:26.543Z,100746.86
2018-08-20T14:53:57.846Z,100746.75
2018-08-20T14:56:29.468Z,100739.85
2018-08-20T14:59:00.219Z,100733.70
2018-08-20T15:01:31.030Z,100739.02
2018-08-20T15:04:01.703Z,100744.23
2018-08-20T15:06:32.558Z,100738.81
2018-08-20T15:09:03.408Z,100732.98
2018-08-20T15:11:34.109Z,100733.05
2018-08-20T15:14:05.065Z,100730.53
2018-08-20T15:16:35.761Z,100727.38
2018-08-20T15:19:06.457Z,100730.41
2018-08-20T15:21:37.123Z,100736.87
2018-08-20T15:24:14.712Z,100733.23
2018-08-20T15:26:45.531Z,100729.95
2018-08-20T15:29:16.665Z,100731.87
2018-08-20T15:31:47.509Z,100726.79
2018-08-20T15:34:18.255Z,100735.70
2018-08-20T15:36:48.958Z,100729.80
2018-08-20T15:39:19.667Z,100739.32
2018-08-20T15:41:50.367Z,100737.00
2018-08-20T15:44:21.003Z,100736.92
2018-08-20T15:46:51.711Z,100736.13
2018-08-20T15:49:22.417Z,100729.55
2018-08-20T15:51:53.036Z,100724.81
2018-08-20T15:54:23.734Z,100723.06
2018-08-20T15:56:54.468Z,100725.17
2018-08-20T15:59:25.093Z,100731.84
2018-08-20T16:01:55.859Z,100727.74
2018-08-20T16:04:26.503Z,100727.95
2018-08-20T16:06:57.259Z,100729.23
2018-08-20T16:09:27.983Z,100729.65
2018-08-20T16:11:58.886Z,100733.40
2018-08-20T16:14:29.531Z,100738.19
2018-08-20T16:17:00.243Z,100732.10
2018-08-20T16:19:30.882Z,100738.12
2018-08-20T16:22:01.544Z,100732.25
2018-08-20T16:24:32.183Z,100733.33
2018-08-20T16:27:03.003Z,100721.64
2018-08-20T16:29:33.696Z,100721.72
2018-08-20T16:32:04.460Z,100724.89
2018-08-20T16:34:35.547Z,100723.39
2018-08-20T16:37:07.413Z,100723.68
2018-08-20T16:39:38.597Z,100722.86
2018-08-20T16:42:09.645Z,100721.52
2018-08-20T16:44:40.515Z,100725.33
2018-08-20T16:47:11.153Z,100718.45
2018-08-20T16:49:42.031Z,100716.77
2018-08-20T16:52:12.735Z,100714.35
2018-08-20T16:54:43.448Z,100721.45
2018-08-20T16:57:14.116Z,100716.77
2018-08-20T16:59:44.877Z,100722.70
2018-08-20T17:02:20.764Z,100714.79
2018-08-20T17:04:51.503Z,100713.08
2018-08-20T17:07:22.161Z,100713.71
2018-08-20T17:09:52.866Z,100721.98
2018-08-20T17:12:23.527Z,100720.47
2018-08-20T17:14:54.250Z,100716.56
2018-08-20T17:17:24.966Z,100719.29
2018-08-20T17:19:55.655Z,100715.41
2018-08-20T17:22:26.398Z,100718.66
2018-08-20T17:24:57.653Z,100724.89
2018-08-20T17:27:28.320Z,100722.20
2018-08-20T17:29:59.058Z,100727.36
2018-08-20T17:32:31.387Z,100724.67
2018-08-20T17:35:02.427Z,100719.48
2018-08-20T17:37:33.713Z,100720.75
2018-08-20T17:40:07.905Z,100727.81
2018-08-20T17:42:38.779Z,100726.61
2018-08-20T17:45:10.657Z,100729.97
2018-08-20T17:47:41.699Z,100728.20
2018-08-20T17:50:30.322Z,100730.52
2018-08-20T17:53:01.198Z,100729.09
2018-08-20T17:55:31.963Z,100733.61
2018-08-20T17:58:02.725Z,100733.23
2018-08-20T18:00:46.978Z,100736.06
2018-08-20T18:03:24.066Z,100729.97
2018-08-20T18:06:00.531Z,100734.77
2018-08-20T18:08:32.341Z,100741.89
2018-08-20T18:11:03.467Z,100741.03
2018-08-20T18:13:49.305Z,100743.94
2018-08-20T18:16:21.243Z,100743.62
2018-08-20T18:18:53.027Z,100740.48
2018-08-20T18:21:23.765Z,100741.37
2018-08-20T18:23:54.594Z,100746.39
2018-08-20T18:26:30.532Z,100743.00
2018-08-20T18:29:01.265Z,100754.22
2018-08-20T18:31:32.016Z,100754.23
2018-08-20T18:34:02.814Z,100757.92
2018-08-20T18:36:33.697Z,100763.44
2018-08-20T18:39:10.111Z,100764.03
2018-08-20T18:42:13.541Z,100772.84
2018-08-20T18:44:44.830Z,100772.27
2018-08-20T18:47:16.972Z,100775.44
2018-08-20T18:49:53.694Z,100783.12
2018-08-20T18:52:26.558Z,100775.83
2018-08-20T18:54:58.796Z,100779.62
2018-08-20T18:57:32.166Z,100780.38
2018-08-20T19:00:05.651Z,100783.55
2018-08-20T19:02:50.162Z,100790.02
2018-08-20T19:05:21.452Z,100784.19
2018-08-20T19:07:52.268Z,100790.55
2018-08-20T19:10:26.751Z,100796.53
2018-08-20T19:12:57.609Z,100788.73
2018-08-20T19:15:40.987Z,100797.85
2018-08-20T19:18:14.460Z,100793.73
2018-08-20T19:20:45.354Z,100799.23
2018-08-20T19:23:16.136Z,100798.38
2018-08-20T19:25:47.062Z,100797.89
2018-08-20T19:28:23.703Z,100797.52
2018-08-20T19:30:55.893Z,100795.35
2018-08-20T19:33:28.400Z,100795.35
2018-08-20T19:35:59.309Z,100798.27
2018-08-20T19:38:30.032Z,100799.89
2018-08-20T19:41:09.039Z,100805.50
2018-08-20T19:43:43.973Z,100809.52
2018-08-20T19:46:19.024Z,100803.44
2018-08-20T19:48:50.816Z,100806.22
2018-08-20T19:51:21.619Z,100812.83
2018-08-20T19:53:52.374Z,100807.45
2018-08-20T19:56:23.222Z,100811.59
2018-08-20T19:58:53.951Z,100810.37
2018-08-20T20:01:25.867Z,100810.03
2018-08-20T20:03:56.738Z,100809.66
2018-08-20T20:06:27.484Z,100811.48
2018-08-20T20:08:58.382Z,100810.75
2018-08-20T20:11:30.507Z,100812.23
2018-08-20T20:14:03.241Z,100819.08
2018-08-20T20:16:41.033Z,100819.17
2018-08-20T20:19:12.228Z,100819.80
2018-08-20T20:21:43.076Z,100818.11
2018-08-20T20:24:14.108Z,100819.08
2018-08-20T20:26:44.853Z,100821.51
2018-08-20T20:29:15.800Z,100823.84
2018-08-20T20:31:46.392Z,100825.19
2018-08-20T20:34:17.133Z,100823.33
2018-08-20T20:36:47.946Z,100818.23
2018-08-20T20:39:18.699Z,100822.88
2018-08-20T20:41:49.500Z,100824.83
2018-08-20T20:44:20.192Z,100827.52
2018-08-20T20:46:50.930Z,100822.16
2018-08-20T20:49:52.356Z,100825.20
2018-08-20T20:52:23.131Z,100827.98
2018-08-20T20:54:53.866Z,100827.98
2018-08-20T20:57:24.566Z,100823.97
2018-08-20T20:59:55.371Z,100829.22
2018-08-20T21:02:26.024Z,100823.97
2018-08-20T21:05:00.887Z,100832.14
2018-08-20T21:07:33.582Z,100829.59
2018-08-20T21:10:04.802Z,100834.95
2018-08-20T21:12:35.486Z,100839.45
2018-08-20T21:15:08.460Z,100841.40
2018-08-20T21:17:39.242Z,100834.97
2018-08-20T21:20:09.941Z,100839.60
2018-08-20T21:22:40.878Z,100837.97
2018-08-20T21:25:11.851Z,100836.64
2018-08-20T21:27:42.659Z,100843.70
2018-08-20T21:30:13.326Z,100841.87
2018-08-20T21:32:44.109Z,100840.03
2018-08-20T21:35:14.841Z,100842.59
2018-08-20T21:37:45.562Z,100843.33
2018-08-20T21:40:20.319Z,100840.28
2018-08-20T21:42:50.960Z,100843.05
2018-08-20T21:45:21.605Z,100849.02
2018-08-20T21:47:52.340Z,100847.94
2018-08-20T21:50:23.046Z,100847.69
2018-08-20T21:52:53.778Z,100849.38
2018-08-20T21:55:24.453Z,100846.93
2018-08-20T21:57:58.346Z,100852.16
2018-08-20T22:00:30.588Z,100850.56
2018-08-20T22:03:01.869Z,100856.17
2018-08-20T22:05:32.668Z,100854.11
2018-08-20T22:08:03.409Z,100853.47
2018-08-20T22:10:34.117Z,100854.55
2018-08-20T22:13:04.838Z,100860.16
2018-08-20T22:15:35.602Z,100860.77
2018-08-20T22:18:06.477Z,100867.20
2018-08-20T22:20:37.163Z,100866.95
2018-08-20T22:23:24.948Z,100867.90
2018-08-20T22:25:39.588Z,100867.39
2018-08-20T22:28:10.633Z,100869.80
2018-08-20T22:30:45.466Z,100867.22
2018-08-20T22:33:16.118Z,100868.08
2018-08-20T22:35:46.793Z,100863.90
2018-08-20T22:38:17.560Z,100861.82
2018-08-20T22:40:49.843Z,100861.69
2018-08-20T22:43:20.556Z,100861.81
2018-08-20T22:45:51.302Z,100857.67
2018-08-20T22:48:21.984Z,100858.75
2018-08-20T22:51:11.539Z,100863.45
2018-08-20T22:53:47.306Z,100858.70
2018-08-20T22:56:21.012Z,100855.77
2018-08-20T22:58:52.127Z,100860.29
2018-08-20T23:01:22.827Z,100861.63
2018-08-20T23:03:53.590Z,100860.50
2018-08-20T23:06:24.560Z,100864.37
2018-08-20T23:08:55.330Z,100866.31
2018-08-20T23:11:40.810Z,100858.98
2018-08-20T23:14:12.738Z,100861.91
2018-08-20T23:16:43.406Z,100863.58
2018-08-20T23:19:14.218Z,100865.60
2018-08-20T23:21:45.995Z,100865.94
2018-08-20T23:24:17.433Z,100869.20
2018-08-20T23:26:48.129Z,100864.10
2018-08-20T23:29:18.859Z,100866.98
2018-08-20T23:31:49.583Z,100868.66
2018-08-20T23:34:20.236Z,100870.71
2018-08-20T23:36:50.977Z,100874.45
2018-08-20T23:39:21.755Z,100870.63
2018-08-20T23:41:52.464Z,100873.41
2018-08-20T23:44:23.208Z,100873.89
2018-08-20T23:46:53.917Z,100868.67
2018-08-20T23:49:24.545Z,100870.21
2018-08-20T23:51:55.328Z,100873.74
2018-08-20T23:54:26.130Z,100872.77
2018-08-20T23:56:56.821Z,100879.09
2018-08-20T23:59:27.496Z,100875.80
